sensor_id;sensor_type;location;lat;lon;timestamp;P1;durP1;ratioP1;P2;durP2;ratioP2
31306;SDS011;17935;51.120;13.132;2022-11-10T00:00:07;4.68;;;1.55;;
31306;SDS011;17935;51.120;13.132;2022-11-10T00:02:34;5.57;;;2.03;;
31306;SDS011;17935;51.120;13.132;2022-11-10T00:05:00;3.25;;;1.70;;
31306;SDS011;17935;51.120;13.132;2022-11-10T00:07:26;3.75;;;1.98;;
31306;SDS011;17935;51.120;13.132;2022-11-10T00:09:53;3.80;;;1.95;;
31306;SDS011;17935;51.120;13.132;2022-11-10T00:12:21;4.38;;;2.15;;
31306;SDS011;17935;51.120;13.132;2022-11-10T00:14:47;8.18;;;2.20;;
31306;SDS011;17935;51.120;13.132;2022-11-10T00:17:35;5.40;;;2.15;;
31306;SDS011;17935;51.120;13.132;2022-11-10T00:20:01;5.93;;;2.00;;
31306;SDS011;17935;51.120;13.132;2022-11-10T00:22:27;6.43;;;2.22;;
31306;SDS011;17935;51.120;13.132;2022-11-10T00:24:53;2.05;;;1.90;;
31306;SDS011;17935;51.120;13.132;2022-11-10T00:27:19;9.70;;;2.00;;
31306;SDS011;17935;51.120;13.132;2022-11-10T00:29:45;5.13;;;1.88;;
31306;SDS011;17935;51.120;13.132;2022-11-10T00:32:11;8.82;;;2.33;;
31306;SDS011;17935;51.120;13.132;2022-11-10T00:34:37;3.72;;;1.73;;
31306;SDS011;17935;51.120;13.132;2022-11-10T00:37:03;2.90;;;2.00;;
31306;SDS011;17935;51.120;13.132;2022-11-10T00:39:29;5.47;;;3.42;;
31306;SDS011;17935;51.120;13.132;2022-11-10T00:41:55;9.52;;;2.55;;
31306;SDS011;17935;51.120;13.132;2022-11-10T00:44:21;7.30;;;2.08;;
31306;SDS011;17935;51.120;13.132;2022-11-10T00:46:47;5.50;;;1.77;;
31306;SDS011;17935;51.120;13.132;2022-11-10T00:49:13;2.95;;;2.17;;
31306;SDS011;17935;51.120;13.132;2022-11-10T00:51:39;3.00;;;1.90;;
31306;SDS011;17935;51.120;13.132;2022-11-10T00:54:05;5.88;;;1.83;;
31306;SDS011;17935;51.120;13.132;2022-11-10T00:56:31;9.82;;;2.30;;
31306;SDS011;17935;51.120;13.132;2022-11-10T00:58:57;5.15;;;2.25;;
31306;SDS011;17935;51.120;13.132;2022-11-10T01:01:23;3.90;;;2.20;;
31306;SDS011;17935;51.120;13.132;2022-11-10T01:03:50;8.95;;;2.47;;
31306;SDS011;17935;51.120;13.132;2022-11-10T01:06:17;5.05;;;2.67;;
31306;SDS011;17935;51.120;13.132;2022-11-10T01:08:43;5.80;;;2.60;;
31306;SDS011;17935;51.120;13.132;2022-11-10T01:11:20;5.15;;;2.22;;
31306;SDS011;17935;51.120;13.132;2022-11-10T01:13:46;4.65;;;2.55;;
31306;SDS011;17935;51.120;13.132;2022-11-10T01:16:16;5.97;;;2.47;;
31306;SDS011;17935;51.120;13.132;2022-11-10T01:18:43;7.75;;;2.30;;
31306;SDS011;17935;51.120;13.132;2022-11-10T01:21:09;6.65;;;2.72;;
31306;SDS011;17935;51.120;13.132;2022-11-10T01:23:35;2.83;;;2.53;;
31306;SDS011;17935;51.120;13.132;2022-11-10T01:26:02;6.30;;;2.08;;
31306;SDS011;17935;51.120;13.132;2022-11-10T01:28:29;4.00;;;2.35;;
31306;SDS011;17935;51.120;13.132;2022-11-10T01:30:56;5.25;;;1.80;;
31306;SDS011;17935;51.120;13.132;2022-11-10T01:33:22;3.80;;;2.33;;
31306;SDS011;17935;51.120;13.132;2022-11-10T01:35:48;14.38;;;3.10;;
31306;SDS011;17935;51.120;13.132;2022-11-10T01:38:14;12.32;;;2.85;;
31306;SDS011;17935;51.120;13.132;2022-11-10T01:40:39;14.93;;;2.83;;
31306;SDS011;17935;51.120;13.132;2022-11-10T01:43:08;4.63;;;2.50;;
31306;SDS011;17935;51.120;13.132;2022-11-10T01:48:07;4.20;;;2.05;;
31306;SDS011;17935;51.120;13.132;2022-11-10T01:50:34;4.43;;;2.15;;
31306;SDS011;17935;51.120;13.132;2022-11-10T01:53:01;4.85;;;2.40;;
31306;SDS011;17935;51.120;13.132;2022-11-10T01:55:28;4.22;;;2.28;;
31306;SDS011;17935;51.120;13.132;2022-11-10T01:57:55;3.72;;;1.83;;
31306;SDS011;17935;51.120;13.132;2022-11-10T02:00:21;6.60;;;2.40;;
31306;SDS011;17935;51.120;13.132;2022-11-10T02:05:16;6.40;;;2.05;;
31306;SDS011;17935;51.120;13.132;2022-11-10T02:07:42;6.28;;;2.22;;
31306;SDS011;17935;51.120;13.132;2022-11-10T02:10:12;10.60;;;2.92;;
31306;SDS011;17935;51.120;13.132;2022-11-10T02:12:38;5.40;;;2.30;;
31306;SDS011;17935;51.120;13.132;2022-11-10T02:15:05;7.63;;;2.45;;
31306;SDS011;17935;51.120;13.132;2022-11-10T02:17:32;10.30;;;2.17;;
31306;SDS011;17935;51.120;13.132;2022-11-10T02:20:02;3.67;;;2.33;;
31306;SDS011;17935;51.120;13.132;2022-11-10T02:22:29;3.25;;;2.10;;
31306;SDS011;17935;51.120;13.132;2022-11-10T02:24:55;6.63;;;2.30;;
31306;SDS011;17935;51.120;13.132;2022-11-10T02:27:21;5.32;;;2.38;;
31306;SDS011;17935;51.120;13.132;2022-11-10T02:29:47;10.40;;;2.40;;
31306;SDS011;17935;51.120;13.132;2022-11-10T02:32:13;11.85;;;2.90;;
31306;SDS011;17935;51.120;13.132;2022-11-10T02:34:39;7.03;;;2.58;;
31306;SDS011;17935;51.120;13.132;2022-11-10T02:37:05;10.75;;;2.70;;
31306;SDS011;17935;51.120;13.132;2022-11-10T02:39:31;10.98;;;2.75;;
31306;SDS011;17935;51.120;13.132;2022-11-10T02:41:57;4.82;;;2.03;;
31306;SDS011;17935;51.120;13.132;2022-11-10T02:44:23;6.97;;;2.80;;
31306;SDS011;17935;51.120;13.132;2022-11-10T02:46:49;5.95;;;2.40;;
31306;SDS011;17935;51.120;13.132;2022-11-10T02:49:15;5.28;;;2.05;;
31306;SDS011;17935;51.120;13.132;2022-11-10T02:51:41;6.32;;;2.55;;
31306;SDS011;17935;51.120;13.132;2022-11-10T02:54:07;4.95;;;2.40;;
31306;SDS011;17935;51.120;13.132;2022-11-10T02:56:33;7.38;;;2.35;;
31306;SDS011;17935;51.120;13.132;2022-11-10T02:58:59;14.57;;;2.67;;
31306;SDS011;17935;51.120;13.132;2022-11-10T03:01:25;13.40;;;2.78;;
31306;SDS011;17935;51.120;13.132;2022-11-10T03:03:51;10.05;;;2.38;;
31306;SDS011;17935;51.120;13.132;2022-11-10T03:06:17;10.93;;;2.50;;
31306;SDS011;17935;51.120;13.132;2022-11-10T03:08:43;6.70;;;2.28;;
31306;SDS011;17935;51.120;13.132;2022-11-10T03:11:09;11.68;;;3.25;;
31306;SDS011;17935;51.120;13.132;2022-11-10T03:13:35;6.38;;;2.22;;
31306;SDS011;17935;51.120;13.132;2022-11-10T03:16:01;11.95;;;3.20;;
31306;SDS011;17935;51.120;13.132;2022-11-10T03:18:27;10.95;;;2.70;;
31306;SDS011;17935;51.120;13.132;2022-11-10T03:20:53;4.85;;;2.28;;
31306;SDS011;17935;51.120;13.132;2022-11-10T03:23:19;7.22;;;2.50;;
31306;SDS011;17935;51.120;13.132;2022-11-10T03:25:45;5.82;;;2.55;;
31306;SDS011;17935;51.120;13.132;2022-11-10T03:28:11;10.00;;;2.55;;
31306;SDS011;17935;51.120;13.132;2022-11-10T03:30:37;7.80;;;3.17;;
31306;SDS011;17935;51.120;13.132;2022-11-10T03:33:04;9.90;;;2.42;;
31306;SDS011;17935;51.120;13.132;2022-11-10T03:35:30;10.13;;;2.67;;
31306;SDS011;17935;51.120;13.132;2022-11-10T03:37:56;6.80;;;2.53;;
31306;SDS011;17935;51.120;13.132;2022-11-10T03:40:22;5.70;;;2.90;;
31306;SDS011;17935;51.120;13.132;2022-11-10T03:42:48;10.15;;;2.85;;
31306;SDS011;17935;51.120;13.132;2022-11-10T03:45:14;9.35;;;2.78;;
31306;SDS011;17935;51.120;13.132;2022-11-10T03:47:43;10.52;;;3.00;;
31306;SDS011;17935;51.120;13.132;2022-11-10T03:50:10;7.25;;;3.08;;
31306;SDS011;17935;51.120;13.132;2022-11-10T03:52:37;8.85;;;3.00;;
31306;SDS011;17935;51.120;13.132;2022-11-10T03:55:04;8.30;;;2.92;;
31306;SDS011;17935;51.120;13.132;2022-11-10T03:57:30;9.32;;;3.60;;
31306;SDS011;17935;51.120;13.132;2022-11-10T03:59:56;14.95;;;3.72;;
31306;SDS011;17935;51.120;13.132;2022-11-10T04:02:22;6.35;;;3.05;;
31306;SDS011;17935;51.120;13.132;2022-11-10T04:04:48;14.32;;;4.05;;
31306;SDS011;17935;51.120;13.132;2022-11-10T04:07:32;12.50;;;4.00;;
31306;SDS011;17935;51.120;13.132;2022-11-10T04:10:17;7.25;;;3.65;;
31306;SDS011;17935;51.120;13.132;2022-11-10T04:12:43;9.00;;;3.67;;
31306;SDS011;17935;51.120;13.132;2022-11-10T04:15:28;5.80;;;3.72;;
31306;SDS011;17935;51.120;13.132;2022-11-10T04:18:07;14.45;;;4.15;;
31306;SDS011;17935;51.120;13.132;2022-11-10T04:20:45;10.27;;;4.85;;
31306;SDS011;17935;51.120;13.132;2022-11-10T04:23:11;15.55;;;4.95;;
31306;SDS011;17935;51.120;13.132;2022-11-10T04:26:05;13.18;;;4.40;;
31306;SDS011;17935;51.120;13.132;2022-11-10T04:28:51;11.88;;;4.18;;
31306;SDS011;17935;51.120;13.132;2022-11-10T04:31:17;10.75;;;4.40;;
31306;SDS011;17935;51.120;13.132;2022-11-10T04:33:44;10.30;;;4.13;;
31306;SDS011;17935;51.120;13.132;2022-11-10T04:36:11;8.68;;;3.85;;
31306;SDS011;17935;51.120;13.132;2022-11-10T04:38:37;14.05;;;3.60;;
31306;SDS011;17935;51.120;13.132;2022-11-10T04:41:03;11.93;;;3.95;;
31306;SDS011;17935;51.120;13.132;2022-11-10T04:43:30;10.60;;;3.50;;
31306;SDS011;17935;51.120;13.132;2022-11-10T04:45:56;14.10;;;4.07;;
31306;SDS011;17935;51.120;13.132;2022-11-10T04:48:22;14.32;;;3.50;;
31306;SDS011;17935;51.120;13.132;2022-11-10T04:50:48;9.60;;;3.45;;
31306;SDS011;17935;51.120;13.132;2022-11-10T04:53:14;10.73;;;3.85;;
31306;SDS011;17935;51.120;13.132;2022-11-10T04:55:41;11.43;;;3.67;;
31306;SDS011;17935;51.120;13.132;2022-11-10T04:58:07;10.73;;;3.55;;
31306;SDS011;17935;51.120;13.132;2022-11-10T05:00:33;7.47;;;3.60;;
31306;SDS011;17935;51.120;13.132;2022-11-10T05:03:00;12.70;;;3.63;;
31306;SDS011;17935;51.120;13.132;2022-11-10T05:05:26;4.57;;;3.55;;
31306;SDS011;17935;51.120;13.132;2022-11-10T05:07:52;11.73;;;3.80;;
31306;SDS011;17935;51.120;13.132;2022-11-10T05:10:18;7.03;;;3.33;;
31306;SDS011;17935;51.120;13.132;2022-11-10T05:12:44;7.28;;;2.78;;
31306;SDS011;17935;51.120;13.132;2022-11-10T05:15:10;9.85;;;3.53;;
31306;SDS011;17935;51.120;13.132;2022-11-10T05:17:36;6.88;;;2.53;;
31306;SDS011;17935;51.120;13.132;2022-11-10T05:20:02;19.05;;;3.55;;
31306;SDS011;17935;51.120;13.132;2022-11-10T05:22:29;10.40;;;3.70;;
31306;SDS011;17935;51.120;13.132;2022-11-10T05:24:55;8.93;;;3.05;;
31306;SDS011;17935;51.120;13.132;2022-11-10T05:27:21;11.75;;;3.72;;
31306;SDS011;17935;51.120;13.132;2022-11-10T05:29:47;5.43;;;2.75;;
31306;SDS011;17935;51.120;13.132;2022-11-10T05:32:13;13.70;;;3.60;;
31306;SDS011;17935;51.120;13.132;2022-11-10T05:34:39;12.63;;;3.60;;
31306;SDS011;17935;51.120;13.132;2022-11-10T05:37:05;12.85;;;3.63;;
31306;SDS011;17935;51.120;13.132;2022-11-10T05:39:31;11.55;;;3.67;;
31306;SDS011;17935;51.120;13.132;2022-11-10T05:41:56;10.68;;;3.28;;
31306;SDS011;17935;51.120;13.132;2022-11-10T05:44:22;8.80;;;3.33;;
31306;SDS011;17935;51.120;13.132;2022-11-10T05:46:49;14.32;;;3.42;;
31306;SDS011;17935;51.120;13.132;2022-11-10T05:49:15;6.55;;;3.28;;
31306;SDS011;17935;51.120;13.132;2022-11-10T05:51:40;8.55;;;3.22;;
31306;SDS011;17935;51.120;13.132;2022-11-10T05:54:06;11.75;;;3.90;;
31306;SDS011;17935;51.120;13.132;2022-11-10T05:56:32;7.18;;;3.55;;
31306;SDS011;17935;51.120;13.132;2022-11-10T05:58:58;12.82;;;2.90;;
31306;SDS011;17935;51.120;13.132;2022-11-10T06:01:24;7.30;;;3.20;;
31306;SDS011;17935;51.120;13.132;2022-11-10T06:03:50;9.68;;;3.47;;
31306;SDS011;17935;51.120;13.132;2022-11-10T06:06:16;8.38;;;3.30;;
31306;SDS011;17935;51.120;13.132;2022-11-10T06:08:43;8.13;;;3.25;;
31306;SDS011;17935;51.120;13.132;2022-11-10T06:11:09;14.82;;;4.03;;
31306;SDS011;17935;51.120;13.132;2022-11-10T06:13:35;10.32;;;2.70;;
31306;SDS011;17935;51.120;13.132;2022-11-10T06:16:01;13.77;;;3.63;;
31306;SDS011;17935;51.120;13.132;2022-11-10T06:18:26;9.90;;;3.17;;
31306;SDS011;17935;51.120;13.132;2022-11-10T06:20:52;14.65;;;3.88;;
31306;SDS011;17935;51.120;13.132;2022-11-10T06:23:18;6.70;;;3.15;;
31306;SDS011;17935;51.120;13.132;2022-11-10T06:25:44;8.68;;;3.17;;
31306;SDS011;17935;51.120;13.132;2022-11-10T06:28:10;11.05;;;3.30;;
31306;SDS011;17935;51.120;13.132;2022-11-10T06:30:38;14.88;;;3.20;;
31306;SDS011;17935;51.120;13.132;2022-11-10T06:33:04;18.90;;;3.30;;
31306;SDS011;17935;51.120;13.132;2022-11-10T06:35:30;9.52;;;2.90;;
31306;SDS011;17935;51.120;13.132;2022-11-10T06:37:57;6.18;;;2.65;;
31306;SDS011;17935;51.120;13.132;2022-11-10T06:40:23;12.13;;;2.80;;
31306;SDS011;17935;51.120;13.132;2022-11-10T06:42:49;13.90;;;3.08;;
31306;SDS011;17935;51.120;13.132;2022-11-10T06:45:15;8.38;;;2.95;;
31306;SDS011;17935;51.120;13.132;2022-11-10T06:47:41;8.60;;;2.90;;
31306;SDS011;17935;51.120;13.132;2022-11-10T06:50:07;5.30;;;2.17;;
31306;SDS011;17935;51.120;13.132;2022-11-10T06:52:34;16.38;;;4.50;;
31306;SDS011;17935;51.120;13.132;2022-11-10T06:55:00;12.73;;;2.60;;
31306;SDS011;17935;51.120;13.132;2022-11-10T06:57:26;8.40;;;2.47;;
31306;SDS011;17935;51.120;13.132;2022-11-10T06:59:52;10.63;;;2.13;;
31306;SDS011;17935;51.120;13.132;2022-11-10T07:02:18;7.75;;;2.38;;
31306;SDS011;17935;51.120;13.132;2022-11-10T07:04:45;5.63;;;1.92;;
31306;SDS011;17935;51.120;13.132;2022-11-10T07:07:11;8.90;;;2.40;;
31306;SDS011;17935;51.120;13.132;2022-11-10T07:09:38;8.05;;;2.65;;
31306;SDS011;17935;51.120;13.132;2022-11-10T07:12:04;4.13;;;2.05;;
31306;SDS011;17935;51.120;13.132;2022-11-10T07:14:30;6.68;;;2.50;;
31306;SDS011;17935;51.120;13.132;2022-11-10T07:16:56;6.03;;;2.22;;
31306;SDS011;17935;51.120;13.132;2022-11-10T07:19:22;5.90;;;2.13;;
31306;SDS011;17935;51.120;13.132;2022-11-10T07:21:48;9.70;;;2.40;;
31306;SDS011;17935;51.120;13.132;2022-11-10T07:24:14;8.50;;;2.28;;
31306;SDS011;17935;51.120;13.132;2022-11-10T07:26:40;5.50;;;2.45;;
31306;SDS011;17935;51.120;13.132;2022-11-10T07:29:06;5.78;;;2.10;;
31306;SDS011;17935;51.120;13.132;2022-11-10T07:31:32;4.95;;;2.10;;
31306;SDS011;17935;51.120;13.132;2022-11-10T07:33:57;7.32;;;1.88;;
31306;SDS011;17935;51.120;13.132;2022-11-10T07:36:23;4.45;;;2.10;;
31306;SDS011;17935;51.120;13.132;2022-11-10T07:38:53;5.13;;;1.88;;
31306;SDS011;17935;51.120;13.132;2022-11-10T07:41:18;6.75;;;3.67;;
31306;SDS011;17935;51.120;13.132;2022-11-10T07:43:44;8.63;;;2.17;;
31306;SDS011;17935;51.120;13.132;2022-11-10T07:46:10;9.05;;;1.95;;
31306;SDS011;17935;51.120;13.132;2022-11-10T07:48:36;8.32;;;2.30;;
31306;SDS011;17935;51.120;13.132;2022-11-10T07:51:02;4.85;;;2.17;;
31306;SDS011;17935;51.120;13.132;2022-11-10T07:53:28;3.95;;;1.90;;
31306;SDS011;17935;51.120;13.132;2022-11-10T07:55:56;7.90;;;2.50;;
31306;SDS011;17935;51.120;13.132;2022-11-10T07:58:22;5.63;;;1.73;;
31306;SDS011;17935;51.120;13.132;2022-11-10T08:00:48;7.50;;;2.30;;
31306;SDS011;17935;51.120;13.132;2022-11-10T08:03:15;6.68;;;2.25;;
31306;SDS011;17935;51.120;13.132;2022-11-10T08:05:42;6.05;;;1.70;;
31306;SDS011;17935;51.120;13.132;2022-11-10T08:08:08;4.13;;;1.67;;
31306;SDS011;17935;51.120;13.132;2022-11-10T08:10:34;4.35;;;1.92;;
31306;SDS011;17935;51.120;13.132;2022-11-10T08:13:02;5.80;;;1.90;;
31306;SDS011;17935;51.120;13.132;2022-11-10T08:15:29;5.65;;;2.08;;
31306;SDS011;17935;51.120;13.132;2022-11-10T08:17:59;7.63;;;2.25;;
31306;SDS011;17935;51.120;13.132;2022-11-10T08:20:25;6.68;;;2.10;;
31306;SDS011;17935;51.120;13.132;2022-11-10T08:23:00;4.70;;;2.10;;
31306;SDS011;17935;51.120;13.132;2022-11-10T08:25:27;6.88;;;2.10;;
31306;SDS011;17935;51.120;13.132;2022-11-10T08:27:57;7.72;;;1.75;;
31306;SDS011;17935;51.120;13.132;2022-11-10T08:30:24;7.85;;;2.20;;
31306;SDS011;17935;51.120;13.132;2022-11-10T08:32:51;7.22;;;1.98;;
31306;SDS011;17935;51.120;13.132;2022-11-10T08:35:17;4.97;;;1.50;;
31306;SDS011;17935;51.120;13.132;2022-11-10T08:37:43;8.10;;;2.10;;
31306;SDS011;17935;51.120;13.132;2022-11-10T08:40:09;7.18;;;1.85;;
31306;SDS011;17935;51.120;13.132;2022-11-10T08:42:36;5.47;;;1.75;;
31306;SDS011;17935;51.120;13.132;2022-11-10T08:45:02;5.20;;;1.60;;
31306;SDS011;17935;51.120;13.132;2022-11-10T08:47:28;3.83;;;1.23;;
31306;SDS011;17935;51.120;13.132;2022-11-10T08:49:53;5.53;;;2.15;;
31306;SDS011;17935;51.120;13.132;2022-11-10T08:52:19;5.90;;;1.58;;
31306;SDS011;17935;51.120;13.132;2022-11-10T08:54:45;6.15;;;1.65;;
31306;SDS011;17935;51.120;13.132;2022-11-10T08:57:11;9.80;;;1.92;;
31306;SDS011;17935;51.120;13.132;2022-11-10T08:59:37;17.63;;;2.05;;
31306;SDS011;17935;51.120;13.132;2022-11-10T09:02:03;7.35;;;2.17;;
31306;SDS011;17935;51.120;13.132;2022-11-10T09:04:29;7.97;;;2.35;;
31306;SDS011;17935;51.120;13.132;2022-11-10T09:06:55;5.10;;;1.83;;
31306;SDS011;17935;51.120;13.132;2022-11-10T09:09:23;6.60;;;1.70;;
31306;SDS011;17935;51.120;13.132;2022-11-10T09:11:50;4.30;;;2.13;;
31306;SDS011;17935;51.120;13.132;2022-11-10T09:14:16;5.95;;;1.55;;
31306;SDS011;17935;51.120;13.132;2022-11-10T09:16:42;8.18;;;1.88;;
31306;SDS011;17935;51.120;13.132;2022-11-10T09:19:08;4.90;;;1.77;;
31306;SDS011;17935;51.120;13.132;2022-11-10T09:21:34;5.90;;;1.75;;
31306;SDS011;17935;51.120;13.132;2022-11-10T09:24:00;10.35;;;2.10;;
31306;SDS011;17935;51.120;13.132;2022-11-10T09:26:26;6.68;;;2.03;;
31306;SDS011;17935;51.120;13.132;2022-11-10T09:28:52;5.95;;;2.00;;
31306;SDS011;17935;51.120;13.132;2022-11-10T09:31:17;6.00;;;1.77;;
31306;SDS011;17935;51.120;13.132;2022-11-10T09:33:43;6.55;;;1.88;;
31306;SDS011;17935;51.120;13.132;2022-11-10T09:36:09;6.07;;;1.98;;
31306;SDS011;17935;51.120;13.132;2022-11-10T09:38:35;7.65;;;1.88;;
31306;SDS011;17935;51.120;13.132;2022-11-10T09:41:03;6.30;;;1.60;;
31306;SDS011;17935;51.120;13.132;2022-11-10T09:46:04;5.40;;;1.90;;
31306;SDS011;17935;51.120;13.132;2022-11-10T09:48:34;5.68;;;2.35;;
31306;SDS011;17935;51.120;13.132;2022-11-10T09:51:04;5.05;;;1.70;;
31306;SDS011;17935;51.120;13.132;2022-11-10T09:56:04;7.82;;;2.30;;
31306;SDS011;17935;51.120;13.132;2022-11-10T09:58:33;13.93;;;2.60;;
31306;SDS011;17935;51.120;13.132;2022-11-10T10:01:06;8.30;;;1.98;;
31306;SDS011;17935;51.120;13.132;2022-11-10T10:03:35;14.73;;;2.15;;
31306;SDS011;17935;51.120;13.132;2022-11-10T10:11:09;5.22;;;2.03;;
31306;SDS011;17935;51.120;13.132;2022-11-10T10:13:59;8.27;;;2.30;;
31306;SDS011;17935;51.120;13.132;2022-11-10T10:24:04;8.85;;;2.63;;
31306;SDS011;17935;51.120;13.132;2022-11-10T10:26:33;5.20;;;1.98;;
31306;SDS011;17935;51.120;13.132;2022-11-10T10:29:09;9.65;;;2.17;;
31306;SDS011;17935;51.120;13.132;2022-11-10T10:31:38;8.30;;;2.53;;
31306;SDS011;17935;51.120;13.132;2022-11-10T10:34:12;5.53;;;2.10;;
31306;SDS011;17935;51.120;13.132;2022-11-10T10:36:38;5.32;;;2.35;;
31306;SDS011;17935;51.120;13.132;2022-11-10T10:39:06;8.02;;;2.53;;
31306;SDS011;17935;51.120;13.132;2022-11-10T10:41:32;9.10;;;1.90;;
31306;SDS011;17935;51.120;13.132;2022-11-10T10:44:01;7.57;;;2.75;;
31306;SDS011;17935;51.120;13.132;2022-11-10T10:46:35;8.18;;;2.17;;
31306;SDS011;17935;51.120;13.132;2022-11-10T10:49:26;5.35;;;2.20;;
31306;SDS011;17935;51.120;13.132;2022-11-10T10:52:25;11.63;;;2.35;;
31306;SDS011;17935;51.120;13.132;2022-11-10T10:54:57;8.20;;;2.53;;
31306;SDS011;17935;51.120;13.132;2022-11-10T10:57:25;10.07;;;2.78;;
31306;SDS011;17935;51.120;13.132;2022-11-10T11:02:39;7.47;;;2.05;;
31306;SDS011;17935;51.120;13.132;2022-11-10T11:05:15;9.25;;;2.40;;
31306;SDS011;17935;51.120;13.132;2022-11-10T11:07:52;11.02;;;2.50;;
31306;SDS011;17935;51.120;13.132;2022-11-10T11:10:20;6.55;;;2.38;;
31306;SDS011;17935;51.120;13.132;2022-11-10T11:12:46;10.48;;;2.17;;
31306;SDS011;17935;51.120;13.132;2022-11-10T11:15:28;10.27;;;2.65;;
31306;SDS011;17935;51.120;13.132;2022-11-10T11:18:02;7.57;;;2.20;;
31306;SDS011;17935;51.120;13.132;2022-11-10T11:23:28;11.85;;;2.85;;
31306;SDS011;17935;51.120;13.132;2022-11-10T11:25:48;6.65;;;2.42;;
31306;SDS011;17935;51.120;13.132;2022-11-10T11:36:20;8.32;;;2.28;;
31306;SDS011;17935;51.120;13.132;2022-11-10T11:38:54;7.95;;;2.13;;
31306;SDS011;17935;51.120;13.132;2022-11-10T11:51:15;6.43;;;2.22;;
31306;SDS011;17935;51.120;13.132;2022-11-10T11:56:29;6.43;;;1.92;;
31306;SDS011;17935;51.120;13.132;2022-11-10T12:01:35;11.85;;;2.28;;
31306;SDS011;17935;51.120;13.132;2022-11-10T12:04:16;8.95;;;2.42;;
31306;SDS011;17935;51.120;13.132;2022-11-10T12:09:17;4.68;;;1.65;;
31306;SDS011;17935;51.120;13.132;2022-11-10T12:11:56;8.15;;;2.58;;
31306;SDS011;17935;51.120;13.132;2022-11-10T12:19:28;4.97;;;2.30;;
31306;SDS011;17935;51.120;13.132;2022-11-10T12:32:06;7.80;;;2.28;;
31306;SDS011;17935;51.120;13.132;2022-11-10T12:37:00;4.35;;;1.90;;
31306;SDS011;17935;51.120;13.132;2022-11-10T12:42:15;7.30;;;2.40;;
31306;SDS011;17935;51.120;13.132;2022-11-10T12:44:54;8.55;;;2.28;;
31306;SDS011;17935;51.120;13.132;2022-11-10T12:47:24;6.90;;;2.08;;
31306;SDS011;17935;51.120;13.132;2022-11-10T12:50:08;9.25;;;3.53;;
31306;SDS011;17935;51.120;13.132;2022-11-10T12:55:18;9.80;;;2.40;;
31306;SDS011;17935;51.120;13.132;2022-11-10T12:57:44;11.45;;;2.17;;
31306;SDS011;17935;51.120;13.132;2022-11-10T13:02:37;5.68;;;2.08;;
31306;SDS011;17935;51.120;13.132;2022-11-10T13:07:42;17.10;;;2.38;;
31306;SDS011;17935;51.120;13.132;2022-11-10T13:18:00;3.97;;;1.85;;
31306;SDS011;17935;51.120;13.132;2022-11-10T13:25:50;6.57;;;2.15;;
31306;SDS011;17935;51.120;13.132;2022-11-10T13:28:33;7.47;;;2.22;;
31306;SDS011;17935;51.120;13.132;2022-11-10T13:34:02;5.72;;;1.98;;
31306;SDS011;17935;51.120;13.132;2022-11-10T13:36:38;7.65;;;2.40;;
31306;SDS011;17935;51.120;13.132;2022-11-10T13:52:24;5.32;;;2.00;;
31306;SDS011;17935;51.120;13.132;2022-11-10T13:57:28;4.45;;;1.80;;
31306;SDS011;17935;51.120;13.132;2022-11-10T13:59:56;14.07;;;2.20;;
31306;SDS011;17935;51.120;13.132;2022-11-10T14:05:00;6.72;;;2.03;;
31306;SDS011;17935;51.120;13.132;2022-11-10T14:07:34;6.90;;;1.75;;
31306;SDS011;17935;51.120;13.132;2022-11-10T14:10:06;8.80;;;2.25;;
31306;SDS011;17935;51.120;13.132;2022-11-10T14:12:40;7.75;;;2.13;;
31306;SDS011;17935;51.120;13.132;2022-11-10T14:15:29;6.45;;;2.33;;
31306;SDS011;17935;51.120;13.132;2022-11-10T14:18:00;7.05;;;2.13;;
31306;SDS011;17935;51.120;13.132;2022-11-10T14:20:30;11.95;;;2.97;;
31306;SDS011;17935;51.120;13.132;2022-11-10T14:22:57;6.72;;;2.75;;
31306;SDS011;17935;51.120;13.132;2022-11-10T14:25:42;5.53;;;1.70;;
31306;SDS011;17935;51.120;13.132;2022-11-10T14:28:25;5.30;;;1.70;;
31306;SDS011;17935;51.120;13.132;2022-11-10T14:30:51;8.30;;;2.53;;
31306;SDS011;17935;51.120;13.132;2022-11-10T14:33:18;4.75;;;1.92;;
31306;SDS011;17935;51.120;13.132;2022-11-10T14:35:50;8.25;;;2.40;;
31306;SDS011;17935;51.120;13.132;2022-11-10T14:40:43;7.15;;;2.60;;
31306;SDS011;17935;51.120;13.132;2022-11-10T14:46:11;10.23;;;2.40;;
31306;SDS011;17935;51.120;13.132;2022-11-10T14:48:38;14.52;;;2.85;;
31306;SDS011;17935;51.120;13.132;2022-11-10T14:53:38;10.43;;;2.25;;
31306;SDS011;17935;51.120;13.132;2022-11-10T14:56:05;9.55;;;2.00;;
31306;SDS011;17935;51.120;13.132;2022-11-10T14:58:35;14.75;;;2.95;;
31306;SDS011;17935;51.120;13.132;2022-11-10T15:01:02;10.82;;;2.63;;
31306;SDS011;17935;51.120;13.132;2022-11-10T15:03:39;10.45;;;2.20;;
31306;SDS011;17935;51.120;13.132;2022-11-10T15:06:06;10.63;;;2.33;;
31306;SDS011;17935;51.120;13.132;2022-11-10T15:08:33;10.93;;;2.17;;
31306;SDS011;17935;51.120;13.132;2022-11-10T15:10:59;8.85;;;2.10;;
31306;SDS011;17935;51.120;13.132;2022-11-10T15:18:42;7.65;;;2.25;;
31306;SDS011;17935;51.120;13.132;2022-11-10T15:21:09;7.00;;;2.47;;
31306;SDS011;17935;51.120;13.132;2022-11-10T15:23:37;12.82;;;5.22;;
31306;SDS011;17935;51.120;13.132;2022-11-10T15:26:04;9.60;;;2.38;;
31306;SDS011;17935;51.120;13.132;2022-11-10T15:28:33;9.80;;;2.53;;
31306;SDS011;17935;51.120;13.132;2022-11-10T15:31:00;10.18;;;2.25;;
31306;SDS011;17935;51.120;13.132;2022-11-10T15:33:29;15.32;;;2.85;;
31306;SDS011;17935;51.120;13.132;2022-11-10T15:36:11;7.85;;;2.50;;
31306;SDS011;17935;51.120;13.132;2022-11-10T15:38:37;7.97;;;2.45;;
31306;SDS011;17935;51.120;13.132;2022-11-10T15:41:04;6.63;;;2.58;;
31306;SDS011;17935;51.120;13.132;2022-11-10T15:43:34;9.07;;;2.80;;
31306;SDS011;17935;51.120;13.132;2022-11-10T15:46:10;12.20;;;2.78;;
31306;SDS011;17935;51.120;13.132;2022-11-10T15:48:39;7.95;;;3.17;;
31306;SDS011;17935;51.120;13.132;2022-11-10T15:51:07;8.05;;;2.97;;
31306;SDS011;17935;51.120;13.132;2022-11-10T15:53:42;14.80;;;3.70;;
31306;SDS011;17935;51.120;13.132;2022-11-10T15:58:34;12.63;;;3.58;;
31306;SDS011;17935;51.120;13.132;2022-11-10T16:01:00;9.82;;;3.33;;
31306;SDS011;17935;51.120;13.132;2022-11-10T16:03:26;15.40;;;3.30;;
31306;SDS011;17935;51.120;13.132;2022-11-10T16:05:52;9.30;;;3.30;;
31306;SDS011;17935;51.120;13.132;2022-11-10T16:08:19;12.50;;;3.28;;
31306;SDS011;17935;51.120;13.132;2022-11-10T16:10:47;14.90;;;3.53;;
31306;SDS011;17935;51.120;13.132;2022-11-10T16:13:14;12.30;;;3.53;;
31306;SDS011;17935;51.120;13.132;2022-11-10T16:15:41;8.07;;;3.08;;
31306;SDS011;17935;51.120;13.132;2022-11-10T16:18:13;9.25;;;3.13;;
31306;SDS011;17935;51.120;13.132;2022-11-10T16:20:39;8.55;;;3.42;;
31306;SDS011;17935;51.120;13.132;2022-11-10T16:23:05;10.88;;;3.92;;
31306;SDS011;17935;51.120;13.132;2022-11-10T16:25:31;11.35;;;3.97;;
31306;SDS011;17935;51.120;13.132;2022-11-10T16:27:58;13.15;;;5.15;;
31306;SDS011;17935;51.120;13.132;2022-11-10T16:30:27;12.55;;;4.72;;
31306;SDS011;17935;51.120;13.132;2022-11-10T16:32:53;22.13;;;6.30;;
31306;SDS011;17935;51.120;13.132;2022-11-10T16:35:19;17.85;;;5.55;;
31306;SDS011;17935;51.120;13.132;2022-11-10T16:37:46;16.35;;;4.93;;
31306;SDS011;17935;51.120;13.132;2022-11-10T16:40:16;15.13;;;5.90;;
31306;SDS011;17935;51.120;13.132;2022-11-10T16:42:42;15.30;;;6.38;;
31306;SDS011;17935;51.120;13.132;2022-11-10T16:45:12;11.50;;;5.22;;
31306;SDS011;17935;51.120;13.132;2022-11-10T16:47:39;15.55;;;6.30;;